createdAt,value
2019-01-25T00:02:44.315Z,47.30
2019-01-25T00:05:48.764Z,48.53
2019-01-25T00:08:53.202Z,48.33
2019-01-25T00:11:57.947Z,41.57
2019-01-25T00:15:02.404Z,44.00
2019-01-25T00:18:07.504Z,43.53
2019-01-25T00:21:11.953Z,41.37
2019-01-25T00:24:16.391Z,44.77
2019-01-25T00:27:20.907Z,44.23
2019-01-25T00:30:25.424Z,43.83
2019-01-25T00:33:29.891Z,42.70
2019-01-25T00:36:34.345Z,44.37
2019-01-25T00:39:39.197Z,42.27
2019-01-25T00:42:43.937Z,43.07
2019-01-25T00:45:48.396Z,44.90
2019-01-25T00:48:52.859Z,48.67
2019-01-25T00:51:57.323Z,47.20
2019-01-25T00:55:01.775Z,43.37
2019-01-25T00:58:06.873Z,46.00
2019-01-25T01:01:11.706Z,46.07
2019-01-25T01:04:16.436Z,50.23
2019-01-25T01:07:20.967Z,51.60
2019-01-25T01:10:25.700Z,50.47
2019-01-25T01:13:30.149Z,51.27
2019-01-25T01:16:34.976Z,56.20
2019-01-25T01:19:39.394Z,55.80
2019-01-25T01:22:43.849Z,59.53
2019-01-25T01:25:48.737Z,55.40
2019-01-25T01:28:53.453Z,54.00
2019-01-25T01:31:57.912Z,58.30
2019-01-25T01:35:02.610Z,57.00
2019-01-25T01:38:07.407Z,59.27
2019-01-25T01:41:11.874Z,55.17
2019-01-25T01:44:16.316Z,56.70
2019-01-25T01:47:21.017Z,61.33
2019-01-25T01:50:25.466Z,54.50
2019-01-25T01:53:29.926Z,59.37
2019-01-25T01:56:34.413Z,62.67
2019-01-25T01:59:39.120Z,68.37
2019-01-25T02:02:43.592Z,70.13
2019-01-25T02:05:48.031Z,60.13
2019-01-25T02:08:52.796Z,68.10
2019-01-25T02:11:57.270Z,61.67
2019-01-25T02:15:01.709Z,64.40
2019-01-25T02:18:06.335Z,65.83
2019-01-25T02:21:11.208Z,60.87
2019-01-25T02:24:15.940Z,61.17
2019-01-25T02:27:20.401Z,63.63
2019-01-25T02:30:26.608Z,60.93
2019-01-25T02:33:31.052Z,61.00
2019-01-25T02:36:35.512Z,63.07
2019-01-25T02:39:39.956Z,68.60
2019-01-25T02:42:44.574Z,62.07
2019-01-25T02:45:49.361Z,59.23
2019-01-25T02:48:54.042Z,60.57
2019-01-25T02:51:58.842Z,70.97
2019-01-25T02:55:03.284Z,66.63
2019-01-25T02:58:07.833Z,61.20
2019-01-25T03:01:12.243Z,67.17
2019-01-25T03:04:16.688Z,67.33
2019-01-25T03:07:21.449Z,63.43
2019-01-25T03:10:28.931Z,60.83
2019-01-25T03:13:32.337Z,56.10
2019-01-25T03:16:37.082Z,58.03
2019-01-25T03:19:41.521Z,60.63
2019-01-25T03:22:46.015Z,54.43
2019-01-25T03:25:50.463Z,60.47
2019-01-25T03:28:54.912Z,56.53
2019-01-25T03:31:59.366Z,54.63
2019-01-25T03:35:05.246Z,52.17
2019-01-25T03:38:09.695Z,57.10
2019-01-25T03:41:14.521Z,60.23
2019-01-25T03:44:18.984Z,58.47
2019-01-25T03:47:23.439Z,63.80
2019-01-25T03:50:30.287Z,65.03
2019-01-25T03:53:34.736Z,61.23
2019-01-25T03:56:39.210Z,56.70
2019-01-25T03:59:43.662Z,58.73
2019-01-25T04:02:48.460Z,60.83
2019-01-25T04:05:52.884Z,62.57
2019-01-25T04:08:57.342Z,64.30
2019-01-25T04:12:02.124Z,57.23
2019-01-25T04:15:13.841Z,58.43
2019-01-25T04:18:18.290Z,71.17
2019-01-25T04:21:22.730Z,63.80
2019-01-25T04:24:27.180Z,67.00
2019-01-25T04:27:31.926Z,68.07
2019-01-25T04:30:36.692Z,64.43
2019-01-25T04:33:41.385Z,66.67
2019-01-25T04:36:45.826Z,68.90
2019-01-25T04:39:50.284Z,68.30
2019-01-25T04:42:54.909Z,66.10
2019-01-25T04:45:59.348Z,69.80
2019-01-25T04:49:04.126Z,75.27
2019-01-25T04:52:13.403Z,69.00
2019-01-25T04:55:32.765Z,65.90
2019-01-25T04:58:37.196Z,69.47
2019-01-25T05:01:41.637Z,63.43
2019-01-25T05:04:46.086Z,69.90
2019-01-25T05:07:50.537Z,75.37
2019-01-25T05:10:55.255Z,68.73
2019-01-25T05:13:59.716Z,67.43
2019-01-25T05:17:04.279Z,70.70
2019-01-25T05:20:09.571Z,69.10
2019-01-25T05:23:14.287Z,72.23
2019-01-25T05:26:18.867Z,72.57
2019-01-25T05:29:26.191Z,77.13
2019-01-25T05:32:30.929Z,73.27
2019-01-25T05:35:37.417Z,75.57
2019-01-25T05:38:46.196Z,79.37
2019-01-25T05:41:52.909Z,74.10
2019-01-25T05:44:57.640Z,72.53
2019-01-25T05:48:02.375Z,79.13
2019-01-25T05:51:07.357Z,76.73
2019-01-25T05:54:11.851Z,82.27
2019-01-25T05:57:16.293Z,80.73
2019-01-25T06:00:25.623Z,77.20
2019-01-25T06:03:30.067Z,69.83
2019-01-25T06:06:34.512Z,74.47
2019-01-25T06:09:39.284Z,73.47
2019-01-25T06:12:43.735Z,73.13
2019-01-25T06:15:48.187Z,74.33
2019-01-25T06:18:52.632Z,74.27
2019-01-25T06:21:57.901Z,71.93
2019-01-25T06:25:02.358Z,77.80
2019-01-25T06:28:07.968Z,74.40
2019-01-25T06:31:14.540Z,75.93
2019-01-25T06:34:18.994Z,78.03
2019-01-25T06:37:23.694Z,78.33
2019-01-25T06:40:28.424Z,74.03
2019-01-25T06:43:32.864Z,69.87
2019-01-25T06:46:37.323Z,82.27
2019-01-25T06:49:41.775Z,72.37
2019-01-25T06:52:46.523Z,73.37
2019-01-25T06:55:50.969Z,78.13
2019-01-25T06:58:57.315Z,71.97
2019-01-25T07:02:03.638Z,68.43
2019-01-25T07:05:09.494Z,78.50
2019-01-25T07:08:15.912Z,80.03
2019-01-25T07:11:20.356Z,72.23
2019-01-25T07:14:24.815Z,69.40
2019-01-25T07:17:29.263Z,74.30
2019-01-25T07:20:33.710Z,72.87
2019-01-25T07:23:38.440Z,67.60
2019-01-25T07:26:42.893Z,70.07
2019-01-25T07:29:47.598Z,62.50
2019-01-25T07:32:52.111Z,61.50
2019-01-25T07:35:56.959Z,61.97
2019-01-25T07:39:04.832Z,64.67
2019-01-25T07:42:09.619Z,63.90
2019-01-25T07:45:15.504Z,59.70
2019-01-25T07:48:20.155Z,64.73
2019-01-25T07:51:24.914Z,66.70
2019-01-25T07:54:29.762Z,57.10
2019-01-25T07:57:34.680Z,65.60
2019-01-25T08:00:39.156Z,60.73
2019-01-25T08:03:43.829Z,60.00
2019-01-25T08:06:48.286Z,61.27
2019-01-25T08:09:52.985Z,56.77
2019-01-25T08:12:57.486Z,54.43
2019-01-25T08:16:03.124Z,58.30
2019-01-25T08:19:07.582Z,53.57
2019-01-25T08:22:12.445Z,59.97
2019-01-25T08:25:17.457Z,54.70
2019-01-25T08:28:22.192Z,57.17
2019-01-25T08:31:26.646Z,56.27
2019-01-25T08:34:31.341Z,59.73
2019-01-25T08:37:35.800Z,56.13
2019-01-25T08:40:41.964Z,50.63
2019-01-25T08:43:46.581Z,58.10
2019-01-25T08:46:50.986Z,57.17
2019-01-25T08:49:57.874Z,54.23
2019-01-25T08:53:01.932Z,65.60
2019-01-25T08:56:06.406Z,60.23
2019-01-25T08:59:10.884Z,55.57
2019-01-25T09:02:15.296Z,53.50
2019-01-25T09:05:20.474Z,55.33
2019-01-25T09:08:24.928Z,57.87
2019-01-25T09:11:29.374Z,55.83
2019-01-25T09:14:33.824Z,52.77
2019-01-25T09:17:38.279Z,50.87
2019-01-25T09:20:42.727Z,50.60
2019-01-25T09:23:47.445Z,50.73
2019-01-25T09:26:51.891Z,49.13
2019-01-25T09:29:56.326Z,47.40
2019-01-25T09:33:00.775Z,51.40
2019-01-25T09:36:05.334Z,47.70
2019-01-25T09:39:10.021Z,44.50
2019-01-25T09:42:14.699Z,49.63
2019-01-25T09:45:19.133Z,47.17
2019-01-25T09:48:23.857Z,43.03
2019-01-25T09:51:28.287Z,44.63
2019-01-25T09:54:33.011Z,43.80
2019-01-25T09:57:37.741Z,45.27
2019-01-25T10:00:56.701Z,47.33
2019-01-25T10:04:01.141Z,41.53
2019-01-25T10:07:05.738Z,44.40
2019-01-25T10:10:11.127Z,46.80
2019-01-25T10:13:15.570Z,46.93
2019-01-25T10:16:20.011Z,41.57
2019-01-25T10:19:24.779Z,42.63
2019-01-25T10:22:29.224Z,42.20
2019-01-25T10:25:33.656Z,46.33
2019-01-25T10:28:38.357Z,42.53
2019-01-25T10:31:42.797Z,36.10
2019-01-25T10:34:47.510Z,41.20
2019-01-25T10:37:53.157Z,43.30
2019-01-25T10:40:57.587Z,40.87
2019-01-25T10:44:02.045Z,40.60
2019-01-25T10:47:06.750Z,38.13
2019-01-25T10:50:11.678Z,42.90
2019-01-25T10:53:16.125Z,43.70
2019-01-25T10:56:20.556Z,36.37
2019-01-25T10:59:25.257Z,38.70
2019-01-25T11:02:29.684Z,45.07
2019-01-25T11:05:34.196Z,38.40
2019-01-25T11:08:38.939Z,41.13
2019-01-25T11:11:43.380Z,41.03
2019-01-25T11:14:47.824Z,37.70
2019-01-25T11:17:52.431Z,37.47
2019-01-25T11:20:56.872Z,41.20
2019-01-25T11:24:01.570Z,41.43
2019-01-25T11:27:06.302Z,41.07
2019-01-25T11:30:15.464Z,40.87
2019-01-25T11:33:19.896Z,38.17
2019-01-25T11:36:24.336Z,40.37
2019-01-25T11:39:29.120Z,38.03
2019-01-25T11:42:33.553Z,38.27
2019-01-25T11:45:38.069Z,41.23
2019-01-25T11:48:42.508Z,39.30
2019-01-25T11:51:47.218Z,42.23
2019-01-25T11:54:51.660Z,42.30
2019-01-25T11:57:56.375Z,42.17
2019-01-25T12:01:00.818Z,42.90
2019-01-25T12:04:07.578Z,41.93
2019-01-25T12:07:12.003Z,44.10
2019-01-25T12:10:20.624Z,40.93
2019-01-25T12:13:25.508Z,42.57
2019-01-25T12:16:30.198Z,40.67
2019-01-25T12:19:34.666Z,38.17
2019-01-25T12:22:39.528Z,36.00
2019-01-25T12:25:44.072Z,38.10
2019-01-25T12:28:49.104Z,39.63
2019-01-25T12:31:53.626Z,44.47
2019-01-25T12:34:58.071Z,38.27
2019-01-25T12:38:02.785Z,42.83
2019-01-25T12:41:07.637Z,40.70
2019-01-25T12:44:12.057Z,42.97
2019-01-25T12:47:16.771Z,44.10
2019-01-25T12:50:28.442Z,47.53
2019-01-25T12:53:34.320Z,42.13
2019-01-25T12:56:39.050Z,47.00
2019-01-25T12:59:43.785Z,43.73
2019-01-25T13:02:48.219Z,39.80
2019-01-25T13:05:52.798Z,41.37
2019-01-25T13:08:57.234Z,43.00
2019-01-25T13:12:01.668Z,37.17
2019-01-25T13:15:09.328Z,35.53
2019-01-25T13:18:13.928Z,31.57
2019-01-25T13:21:18.373Z,32.30
2019-01-25T13:24:22.809Z,32.63
2019-01-25T13:27:27.241Z,34.60
2019-01-25T13:30:32.619Z,33.73
2019-01-25T13:33:37.464Z,36.50
2019-01-25T13:36:41.902Z,38.83
2019-01-25T13:39:46.351Z,35.37
2019-01-25T13:42:50.781Z,31.67
2019-01-25T13:45:55.219Z,30.73
2019-01-25T13:48:59.650Z,38.77
2019-01-25T13:52:04.092Z,33.50
2019-01-25T13:55:12.061Z,30.30
2019-01-25T13:58:16.491Z,34.07
2019-01-25T14:01:21.269Z,31.20
2019-01-25T14:04:25.711Z,30.83
2019-01-25T14:07:30.433Z,34.07
2019-01-25T14:10:36.985Z,32.07
2019-01-25T14:13:46.686Z,34.53
2019-01-25T14:16:47.890Z,33.60
2019-01-25T14:19:52.619Z,34.00
2019-01-25T14:22:57.049Z,30.77
2019-01-25T14:26:01.492Z,26.80
2019-01-25T14:29:07.165Z,33.90
2019-01-25T14:32:11.672Z,28.80
2019-01-25T14:35:16.119Z,29.60
2019-01-25T14:38:20.805Z,35.17
2019-01-25T14:41:25.250Z,29.87
2019-01-25T14:44:29.958Z,26.03
2019-01-25T14:47:34.408Z,34.83
2019-01-25T14:50:39.109Z,28.43
2019-01-25T14:53:43.841Z,31.00
2019-01-25T14:56:48.580Z,29.67
2019-01-25T14:59:53.305Z,34.10
2019-01-25T15:02:57.754Z,31.13
2019-01-25T15:06:02.194Z,22.23
2019-01-25T15:09:09.508Z,23.00
2019-01-25T15:12:13.953Z,21.53
2019-01-25T15:15:18.379Z,16.13
2019-01-25T15:18:23.120Z,16.70
2019-01-25T15:21:27.564Z,16.70
2019-01-25T15:24:31.998Z,18.77
2019-01-25T15:27:36.695Z,19.70
2019-01-25T15:30:41.142Z,21.47
2019-01-25T15:33:45.852Z,15.97
2019-01-25T15:36:50.285Z,15.67
2019-01-25T15:39:54.874Z,16.80
2019-01-25T15:42:59.317Z,16.57
2019-01-25T15:46:03.755Z,16.83
2019-01-25T15:49:08.188Z,15.73
2019-01-25T15:52:12.908Z,20.47
2019-01-25T15:55:18.373Z,14.17
2019-01-25T15:58:23.084Z,14.47
2019-01-25T16:01:27.819Z,14.23
2019-01-25T16:04:34.939Z,13.10
2019-01-25T16:07:39.022Z,11.97
2019-01-25T16:10:43.746Z,12.93
2019-01-25T16:13:49.831Z,14.47
2019-01-25T16:16:54.743Z,15.47
2019-01-25T16:19:59.173Z,13.23
2019-01-25T16:23:03.681Z,16.03
2019-01-25T16:26:08.424Z,13.43
2019-01-25T16:29:12.861Z,14.20
2019-01-25T16:32:17.580Z,13.47
2019-01-25T16:35:22.317Z,11.73
2019-01-25T16:38:27.037Z,16.47
2019-01-25T16:41:31.782Z,14.60
2019-01-25T16:44:36.369Z,15.70
2019-01-25T16:47:41.235Z,19.40
2019-01-25T16:50:45.675Z,16.90
2019-01-25T16:53:50.118Z,14.13
2019-01-25T16:56:54.893Z,11.87
2019-01-25T16:59:59.648Z,15.10
2019-01-25T17:03:04.498Z,14.57
2019-01-25T17:06:09.096Z,16.80
2019-01-25T17:09:13.842Z,16.27
2019-01-25T17:12:18.273Z,17.97
2019-01-25T17:15:22.991Z,17.50
2019-01-25T17:18:27.719Z,14.97
2019-01-25T17:21:32.153Z,19.10
2019-01-25T17:24:37.246Z,14.87
2019-01-25T17:27:41.912Z,16.17
2019-01-25T17:30:46.648Z,17.87
2019-01-25T17:33:51.101Z,23.00
2019-01-25T17:36:55.616Z,24.73
2019-01-25T17:40:00.451Z,24.17
2019-01-25T17:43:05.446Z,25.43
2019-01-25T17:46:10.201Z,26.33
2019-01-25T17:49:14.773Z,28.37
2019-01-25T17:52:19.658Z,30.30
2019-01-25T17:55:24.287Z,27.00
2019-01-25T17:58:28.915Z,28.40
2019-01-25T18:01:33.351Z,25.00
2019-01-25T18:04:38.005Z,27.20
2019-01-25T18:07:44.239Z,26.10
2019-01-25T18:10:49.147Z,24.17
2019-01-25T18:13:53.555Z,27.50
2019-01-25T18:16:58.633Z,27.93
2019-01-25T18:20:03.255Z,28.70
2019-01-25T18:23:07.674Z,25.60
2019-01-25T18:26:12.186Z,28.23
2019-01-25T18:29:17.047Z,26.30
2019-01-25T18:32:21.840Z,28.30
2019-01-25T18:35:26.299Z,24.73
2019-01-25T18:38:31.028Z,26.50
2019-01-25T18:41:35.505Z,23.77
2019-01-25T18:44:39.936Z,20.43
2019-01-25T18:47:44.435Z,26.37
2019-01-25T18:50:49.134Z,22.10
2019-01-25T18:53:53.868Z,27.37
2019-01-25T18:56:58.702Z,22.77
2019-01-25T19:00:03.422Z,19.73
2019-01-25T19:03:08.146Z,18.37
2019-01-25T19:06:12.889Z,16.13
2019-01-25T19:09:17.563Z,14.27
2019-01-25T19:12:22.509Z,14.77
2019-01-25T19:15:30.767Z,16.00
2019-01-25T19:18:35.515Z,14.83
2019-01-25T19:21:39.956Z,11.43
2019-01-25T19:24:44.397Z,14.60
2019-01-25T19:27:48.951Z,14.43
2019-01-25T19:30:54.429Z,13.53
2019-01-25T19:33:58.851Z,14.87
2019-01-25T19:37:03.299Z,15.23
2019-01-25T19:40:30.428Z,15.50
2019-01-25T19:43:34.864Z,14.60
2019-01-25T19:46:39.306Z,16.70
2019-01-25T19:49:44.007Z,15.43
2019-01-25T19:52:48.734Z,16.53
2019-01-25T19:55:53.167Z,14.07
2019-01-25T19:58:57.603Z,14.10
2019-01-25T20:02:02.314Z,16.10
2019-01-25T20:05:11.838Z,14.30
2019-01-25T20:08:16.346Z,13.77
2019-01-25T20:11:21.105Z,14.57
2019-01-25T20:14:27.439Z,13.40
2019-01-25T20:17:32.205Z,12.67
2019-01-25T20:20:39.811Z,14.07
2019-01-25T20:23:44.290Z,14.93
2019-01-25T20:26:49.067Z,12.50
2019-01-25T20:29:53.801Z,13.47
2019-01-25T20:32:59.081Z,15.03
2019-01-25T20:36:03.585Z,12.83
2019-01-25T20:39:08.862Z,13.40
2019-01-25T20:42:13.903Z,13.37
2019-01-25T20:45:27.285Z,12.40
2019-01-25T20:48:33.432Z,13.10
2019-01-25T20:51:38.134Z,13.50
2019-01-25T20:54:42.551Z,15.83
2019-01-25T20:57:47.237Z,12.10
2019-01-25T21:00:52.032Z,11.13
2019-01-25T21:03:56.463Z,12.37
2019-01-25T21:07:00.965Z,14.67
2019-01-25T21:10:10.254Z,11.80
2019-01-25T21:13:14.691Z,12.60
2019-01-25T21:16:19.162Z,14.43
2019-01-25T21:19:23.919Z,15.73
2019-01-25T21:22:28.661Z,13.07
2019-01-25T21:25:33.427Z,13.93
2019-01-25T21:28:37.861Z,15.67
2019-01-25T21:31:42.566Z,13.13
2019-01-25T21:34:47.273Z,14.17
2019-01-25T21:37:51.757Z,12.50
2019-01-25T21:40:56.181Z,13.00
2019-01-25T21:44:00.947Z,14.67
2019-01-25T21:47:05.888Z,14.53
2019-01-25T21:50:28.615Z,15.13
2019-01-25T21:53:33.049Z,14.90
2019-01-25T21:56:37.796Z,13.37
2019-01-25T21:59:42.323Z,11.97
2019-01-25T22:02:46.781Z,12.80
2019-01-25T22:05:51.205Z,13.80
2019-01-25T22:08:55.966Z,12.57
2019-01-25T22:12:00.417Z,12.63
2019-01-25T22:15:07.900Z,14.60
2019-01-25T22:18:12.873Z,13.07
2019-01-25T22:21:17.303Z,13.97
2019-01-25T22:24:22.138Z,15.37
2019-01-25T22:27:26.849Z,14.63
2019-01-25T22:30:31.352Z,11.70
2019-01-25T22:33:36.107Z,14.77
2019-01-25T22:36:40.843Z,15.57
2019-01-25T22:39:45.292Z,14.40
2019-01-25T22:42:50.001Z,13.50
2019-01-25T22:45:58.730Z,13.80
2019-01-25T22:49:00.647Z,13.83
2019-01-25T22:52:05.345Z,17.50
2019-01-25T22:55:14.431Z,13.77
2019-01-25T22:58:19.167Z,15.57
2019-01-25T23:01:25.607Z,13.03
2019-01-25T23:04:34.748Z,14.27
2019-01-25T23:07:39.197Z,14.07
2019-01-25T23:10:43.927Z,13.40
2019-01-25T23:13:48.376Z,13.13
2019-01-25T23:16:52.977Z,12.83
2019-01-25T23:19:57.414Z,11.97
2019-01-25T23:23:01.838Z,12.60
2019-01-25T23:26:06.281Z,13.97
2019-01-25T23:29:10.714Z,14.70
2019-01-25T23:32:15.144Z,13.63
2019-01-25T23:35:19.576Z,13.87
2019-01-25T23:38:24.007Z,13.63
2019-01-25T23:41:28.447Z,12.77
2019-01-25T23:44:33.204Z,13.40
2019-01-25T23:47:37.945Z,10.30
2019-01-25T23:50:42.372Z,11.53
2019-01-25T23:53:46.820Z,14.93
2019-01-25T23:56:51.615Z,11.47
2019-01-25T23:59:56.342Z,13.10
